createdAt,value
2022-09-07T00:02:23.070Z,51.53
2022-09-07T00:04:50.781Z,59.30
2022-09-07T00:07:21.061Z,49.55
2022-09-07T00:09:48.880Z,51.25
2022-09-07T00:12:22.929Z,56.92
2022-09-07T00:14:50.666Z,50.88
2022-09-07T00:17:18.499Z,53.90
2022-09-07T00:19:47.580Z,56.92
2022-09-07T00:22:15.605Z,50.17
2022-09-07T00:24:43.345Z,56.10
2022-09-07T00:27:11.401Z,71.78
2022-09-07T00:29:41.492Z,51.47
2022-09-07T00:32:09.351Z,59.10
2022-09-07T00:34:37.611Z,58.25
2022-09-07T00:37:06.311Z,60.40
2022-09-07T00:39:34.699Z,48.97
2022-09-07T00:42:02.388Z,48.95
2022-09-07T00:44:51.387Z,66.32
2022-09-07T00:47:22.672Z,51.38
2022-09-07T00:52:42.484Z,48.75
2022-09-07T00:55:11.798Z,54.47
2022-09-07T00:57:40.403Z,56.05
2022-09-07T01:00:08.893Z,46.85
2022-09-07T01:02:39.751Z,56.95
2022-09-07T01:05:14.755Z,51.08
2022-09-07T01:07:42.526Z,48.88
2022-09-07T01:10:10.688Z,53.78
2022-09-07T01:12:38.402Z,63.08
2022-09-07T01:15:06.659Z,46.15
2022-09-07T01:17:39.109Z,49.65
2022-09-07T01:20:33.702Z,51.67
2022-09-07T01:23:20.138Z,48.42
2022-09-07T01:25:57.760Z,56.45
2022-09-07T01:28:28.615Z,42.10
2022-09-07T01:30:58.080Z,49.85
2022-09-07T01:33:34.424Z,42.95
2022-09-07T01:36:06.301Z,56.00
2022-09-07T01:38:38.058Z,51.65
2022-09-07T01:41:06.547Z,55.10
2022-09-07T01:43:38.607Z,46.88
2022-09-07T01:46:09.515Z,44.88
2022-09-07T01:48:37.553Z,39.42
2022-09-07T01:51:05.615Z,47.10
2022-09-07T01:53:35.125Z,41.13
2022-09-07T01:56:04.694Z,49.78
2022-09-07T01:58:35.144Z,45.42
2022-09-07T02:01:06.345Z,46.45
2022-09-07T02:03:37.404Z,44.15
2022-09-07T02:06:08.617Z,38.55
2022-09-07T02:08:38.296Z,47.88
2022-09-07T02:11:09.027Z,39.35
2022-09-07T02:13:38.432Z,34.80
2022-09-07T02:16:10.973Z,42.63
2022-09-07T02:18:40.386Z,29.75
2022-09-07T02:21:09.836Z,29.45
2022-09-07T02:23:39.960Z,30.42
2022-09-07T02:26:08.421Z,35.50
2022-09-07T02:28:37.133Z,36.47
2022-09-07T02:31:05.296Z,36.83
2022-09-07T02:33:34.490Z,39.38
2022-09-07T02:36:03.047Z,34.75
2022-09-07T02:38:31.008Z,39.58
2022-09-07T02:40:59.915Z,34.25
2022-09-07T02:43:28.350Z,34.28
2022-09-07T02:46:03.865Z,32.35
2022-09-07T02:48:32.973Z,29.75
2022-09-07T02:51:11.154Z,34.08
2022-09-07T02:53:49.749Z,28.00
2022-09-07T02:56:23.420Z,26.63
2022-09-07T02:58:56.977Z,26.25
2022-09-07T03:01:31.127Z,26.50
2022-09-07T03:06:30.159Z,22.60
2022-09-07T03:08:59.025Z,19.85
2022-09-07T03:11:27.056Z,23.83
2022-09-07T03:14:11.744Z,21.75
2022-09-07T03:16:39.509Z,20.02
2022-09-07T03:19:07.246Z,20.95
2022-09-07T03:21:36.618Z,22.40
2022-09-07T03:24:04.433Z,23.42
2022-09-07T03:26:32.207Z,21.30
2022-09-07T03:29:00.089Z,18.55
2022-09-07T03:31:27.815Z,14.50
2022-09-07T03:33:55.903Z,17.92
2022-09-07T03:36:23.573Z,12.98
2022-09-07T03:38:52.619Z,16.17
2022-09-07T03:41:20.286Z,15.63
2022-09-07T03:43:49.028Z,12.93
2022-09-07T03:46:19.528Z,12.40
2022-09-07T03:48:47.745Z,15.35
2022-09-07T03:51:16.639Z,9.35
2022-09-07T03:53:44.921Z,13.63
2022-09-07T03:56:14.648Z,13.18
2022-09-07T03:58:42.371Z,13.93
2022-09-07T04:01:11.155Z,14.57
2022-09-07T04:03:39.562Z,12.00
2022-09-07T04:06:07.425Z,11.63
2022-09-07T04:08:36.055Z,13.45
2022-09-07T04:11:05.220Z,16.17
2022-09-07T04:13:35.624Z,15.90
2022-09-07T04:16:10.210Z,15.48
2022-09-07T04:18:43.731Z,11.80
2022-09-07T04:21:11.481Z,11.50
2022-09-07T04:23:39.887Z,15.95
2022-09-07T04:26:07.984Z,13.00
2022-09-07T04:28:37.132Z,11.20
2022-09-07T04:31:04.973Z,12.77
2022-09-07T04:33:33.043Z,10.80
2022-09-07T04:36:00.854Z,11.13
2022-09-07T04:38:29.239Z,11.27
2022-09-07T04:41:00.503Z,16.70
2022-09-07T04:43:28.412Z,14.30
2022-09-07T04:45:57.608Z,12.93
2022-09-07T04:48:25.487Z,12.25
2022-09-07T04:50:53.279Z,9.48
2022-09-07T04:53:21.099Z,10.35
2022-09-07T04:55:48.807Z,8.90
2022-09-07T04:58:16.530Z,9.07
2022-09-07T05:00:44.284Z,13.15
2022-09-07T05:03:14.509Z,7.63
2022-09-07T05:05:42.213Z,8.35
2022-09-07T05:08:10.248Z,10.65
2022-09-07T05:10:37.918Z,8.80
2022-09-07T05:13:05.785Z,10.63
2022-09-07T05:15:34.751Z,14.20
2022-09-07T05:18:02.492Z,11.95
2022-09-07T05:20:31.568Z,8.25
2022-09-07T05:22:59.773Z,10.35
2022-09-07T05:25:29.147Z,10.68
2022-09-07T05:27:57.029Z,7.13
2022-09-07T05:33:12.614Z,11.13
2022-09-07T05:35:43.827Z,6.68
2022-09-07T05:38:11.553Z,8.95
2022-09-07T05:40:40.815Z,5.50
2022-09-07T05:43:10.017Z,10.43
2022-09-07T05:45:37.949Z,14.55
2022-09-07T05:48:07.775Z,5.40
2022-09-07T05:50:35.848Z,8.45
2022-09-07T05:53:06.238Z,8.43
2022-09-07T05:55:34.049Z,16.75
2022-09-07T05:58:01.758Z,17.08
2022-09-07T06:00:29.676Z,11.80
2022-09-07T06:02:59.529Z,10.15
2022-09-07T06:05:27.594Z,8.18
2022-09-07T06:07:55.820Z,10.77
2022-09-07T06:13:13.948Z,11.73
2022-09-07T06:15:42.023Z,5.85
2022-09-07T06:18:09.722Z,11.60
2022-09-07T06:20:37.422Z,7.28
2022-09-07T06:23:05.168Z,6.28
2022-09-07T06:25:34.841Z,5.45
2022-09-07T06:28:02.549Z,5.30
2022-09-07T06:30:30.547Z,6.22
2022-09-07T06:32:58.301Z,4.05
2022-09-07T06:35:37.232Z,4.43
2022-09-07T06:38:05.071Z,4.97
2022-09-07T06:40:35.880Z,4.57
2022-09-07T06:43:03.562Z,7.40
2022-09-07T06:45:31.385Z,6.50
2022-09-07T06:47:59.270Z,4.28
2022-09-07T06:50:50.995Z,7.07
2022-09-07T06:53:34.225Z,6.55
2022-09-07T06:56:06.283Z,3.25
2022-09-07T06:58:35.531Z,10.15
2022-09-07T07:01:06.524Z,7.18
2022-09-07T07:03:34.440Z,6.10
2022-09-07T07:06:02.236Z,10.32
2022-09-07T07:08:30.049Z,7.78
2022-09-07T07:11:02.384Z,7.47
2022-09-07T07:13:31.553Z,4.60
2022-09-07T07:16:09.452Z,4.47
2022-09-07T07:18:37.379Z,4.30
2022-09-07T07:21:05.551Z,9.40
2022-09-07T07:23:34.403Z,6.15
2022-09-07T07:26:03.084Z,6.32
2022-09-07T07:31:27.280Z,7.95
2022-09-07T07:33:55.419Z,6.60
2022-09-07T07:36:25.201Z,3.90
2022-09-07T07:39:01.922Z,5.60
2022-09-07T07:44:21.642Z,3.25
2022-09-07T07:46:49.882Z,5.10
2022-09-07T07:49:17.595Z,3.75
2022-09-07T07:54:34.726Z,3.33
2022-09-07T07:57:02.489Z,5.25
2022-09-07T07:59:33.182Z,4.40
2022-09-07T08:02:04.610Z,2.47
2022-09-07T08:04:33.244Z,2.90
2022-09-07T08:07:04.434Z,2.42
2022-09-07T08:09:39.965Z,5.82
2022-09-07T08:12:07.899Z,2.88
2022-09-07T08:14:40.949Z,4.00
2022-09-07T08:17:09.314Z,3.53
2022-09-07T08:19:36.970Z,5.63
2022-09-07T08:22:06.166Z,4.65
2022-09-07T08:24:34.249Z,3.47
2022-09-07T08:27:02.162Z,4.72
2022-09-07T08:29:33.570Z,2.15
2022-09-07T08:32:04.375Z,3.28
2022-09-07T08:34:32.181Z,3.35
2022-09-07T08:37:00.202Z,3.42
2022-09-07T08:39:27.934Z,3.67
2022-09-07T08:42:03.195Z,2.00
2022-09-07T08:44:33.103Z,2.50
2022-09-07T08:47:04.685Z,1.40
2022-09-07T08:49:48.113Z,2.55
2022-09-07T08:52:21.076Z,4.40
2022-09-07T08:54:54.489Z,1.40
2022-09-07T08:57:27.091Z,3.00
2022-09-07T08:59:59.091Z,1.50
2022-09-07T09:02:28.914Z,1.48
2022-09-07T09:07:55.107Z,7.82
2022-09-07T09:10:27.986Z,13.95
2022-09-07T09:12:59.286Z,30.17
2022-09-07T09:15:31.109Z,22.67
2022-09-07T09:18:03.046Z,9.13
2022-09-07T09:20:35.593Z,3.03
2022-09-07T09:23:06.219Z,6.15
2022-09-07T09:25:35.123Z,3.97
2022-09-07T09:28:02.928Z,6.45
2022-09-07T09:30:31.407Z,3.25
2022-09-07T09:33:13.575Z,1.73
2022-09-07T09:35:51.026Z,1.65
2022-09-07T09:38:30.251Z,1.67
2022-09-07T09:40:59.220Z,5.30
2022-09-07T09:43:27.772Z,2.38
2022-09-07T09:46:12.973Z,4.82
2022-09-07T09:48:42.193Z,7.38
2022-09-07T09:54:06.174Z,5.13
2022-09-07T09:56:37.625Z,11.10
2022-09-07T10:05:21.244Z,3.15
2022-09-07T10:07:53.570Z,2.55
2022-09-07T10:10:21.312Z,5.30
2022-09-07T10:12:52.137Z,2.33
2022-09-07T10:15:26.660Z,3.25
2022-09-07T10:17:54.450Z,4.95
2022-09-07T10:20:31.272Z,3.55
2022-09-07T10:23:00.760Z,4.38
2022-09-07T10:25:29.813Z,3.85
2022-09-07T10:28:03.223Z,1.80
2022-09-07T10:30:36.638Z,2.50
2022-09-07T10:33:06.650Z,2.75
2022-09-07T10:35:35.496Z,2.47
2022-09-07T10:38:10.787Z,1.73
2022-09-07T10:40:42.286Z,1.95
2022-09-07T10:43:22.604Z,2.88
2022-09-07T10:46:03.826Z,3.10
2022-09-07T10:48:34.460Z,1.90
2022-09-07T10:51:13.413Z,1.40
2022-09-07T10:53:47.964Z,2.95
2022-09-07T10:56:40.228Z,5.05
2022-09-07T11:00:07.602Z,3.00
2022-09-07T11:02:18.519Z,0.85
2022-09-07T11:04:53.106Z,1.88
2022-09-07T11:07:25.842Z,1.58
2022-09-07T11:09:59.273Z,3.03
2022-09-07T11:12:29.276Z,3.20
2022-09-07T11:14:59.567Z,1.65
2022-09-07T11:17:29.038Z,3.03
2022-09-07T11:19:59.422Z,1.48
2022-09-07T11:22:31.093Z,2.47
2022-09-07T11:27:52.590Z,6.53
2022-09-07T11:30:21.907Z,2.30
2022-09-07T11:32:59.361Z,1.70
2022-09-07T11:35:32.558Z,3.58
2022-09-07T11:38:12.593Z,2.80
2022-09-07T11:40:44.124Z,1.52
2022-09-07T11:43:18.040Z,3.90
2022-09-07T11:45:50.832Z,3.65
2022-09-07T11:48:20.723Z,8.40
2022-09-07T11:50:50.378Z,2.58
2022-09-07T11:53:31.205Z,4.95
2022-09-07T11:56:08.129Z,2.55
2022-09-07T11:58:59.619Z,1.63
2022-09-07T12:01:33.476Z,4.65
2022-09-07T12:04:18.583Z,7.85
2022-09-07T12:07:02.413Z,2.67
2022-09-07T12:09:44.701Z,3.42
2022-09-07T12:12:22.502Z,3.13
2022-09-07T12:14:58.097Z,1.80
2022-09-07T12:17:31.868Z,4.78
2022-09-07T12:22:26.938Z,2.17
2022-09-07T12:25:00.058Z,2.25
2022-09-07T12:27:39.571Z,2.65
2022-09-07T12:30:26.098Z,2.03
2022-09-07T12:33:06.088Z,4.03
2022-09-07T12:35:39.706Z,2.65
2022-09-07T12:38:22.227Z,1.73
2022-09-07T12:41:01.173Z,2.00
2022-09-07T12:43:55.792Z,3.42
2022-09-07T12:46:42.363Z,4.10
2022-09-07T12:49:18.796Z,1.77
2022-09-07T12:52:06.881Z,4.93
2022-09-07T12:57:32.381Z,2.65
2022-09-07T13:00:05.442Z,2.38
2022-09-07T13:02:43.195Z,4.63
2022-09-07T13:05:17.409Z,5.53
2022-09-07T13:07:50.968Z,2.70
2022-09-07T13:10:24.582Z,179.57
2022-09-07T13:12:53.380Z,7.25
2022-09-07T13:15:35.309Z,4.65
2022-09-07T13:18:03.966Z,3.60
2022-09-07T13:20:39.093Z,14.38
2022-09-07T13:23:32.689Z,2.75
2022-09-07T13:26:01.461Z,10.05
2022-09-07T13:28:40.594Z,5.20
2022-09-07T13:31:24.152Z,3.75
2022-09-07T13:33:52.049Z,2.80
2022-09-07T13:36:28.005Z,4.47
2022-09-07T13:38:56.588Z,7.90
2022-09-07T13:41:26.141Z,3.45
2022-09-07T13:43:59.897Z,8.00
2022-09-07T13:46:42.085Z,7.30
2022-09-07T13:49:16.043Z,4.78
2022-09-07T13:54:16.626Z,7.57
2022-09-07T13:56:47.123Z,5.32
2022-09-07T13:59:29.124Z,5.20
2022-09-07T14:01:57.317Z,7.75
2022-09-07T14:04:26.843Z,5.28
2022-09-07T14:07:02.605Z,4.90
2022-09-07T14:09:35.654Z,6.13
2022-09-07T14:12:05.615Z,9.15
2022-09-07T14:14:50.939Z,7.78
2022-09-07T14:17:19.810Z,4.65
2022-09-07T14:19:48.993Z,6.95
2022-09-07T14:22:17.605Z,6.90
2022-09-07T14:24:49.697Z,4.72
2022-09-07T14:27:21.131Z,4.35
2022-09-07T14:29:48.761Z,3.58
2022-09-07T14:32:18.759Z,6.68
2022-09-07T14:34:46.947Z,6.97
2022-09-07T14:37:16.657Z,3.88
2022-09-07T14:39:46.136Z,2.75
2022-09-07T14:42:20.345Z,8.15
2022-09-07T14:47:23.673Z,6.53
2022-09-07T14:49:53.282Z,10.05
2022-09-07T14:52:23.193Z,3.90
2022-09-07T14:54:52.652Z,6.57
2022-09-07T14:57:30.432Z,7.22
2022-09-07T14:59:58.988Z,3.58
2022-09-07T15:02:32.814Z,13.98
2022-09-07T15:05:18.995Z,4.88
2022-09-07T15:07:48.034Z,3.78
2022-09-07T15:10:16.444Z,3.97
2022-09-07T15:12:45.454Z,5.13
2022-09-07T15:15:22.077Z,4.18
2022-09-07T15:17:50.088Z,4.65
2022-09-07T15:20:38.616Z,4.05
2022-09-07T15:23:10.133Z,4.22
2022-09-07T15:25:40.730Z,9.60
2022-09-07T15:34:01.047Z,5.68
2022-09-07T15:36:31.929Z,3.40
2022-09-07T15:39:03.603Z,8.65
2022-09-07T15:41:34.951Z,6.55
2022-09-07T15:44:05.149Z,6.03
2022-09-07T15:46:40.099Z,4.85
2022-09-07T15:49:18.327Z,5.90
2022-09-07T15:52:05.891Z,4.88
2022-09-07T15:54:39.251Z,8.20
2022-09-07T15:59:56.761Z,7.60
2022-09-07T16:05:31.634Z,5.15
2022-09-07T16:10:54.442Z,6.88
2022-09-07T16:13:31.478Z,7.70
2022-09-07T16:16:02.122Z,7.18
2022-09-07T16:18:31.852Z,8.23
2022-09-07T16:21:04.760Z,7.43
2022-09-07T16:23:35.236Z,5.13
2022-09-07T16:26:04.368Z,7.13
2022-09-07T16:28:35.345Z,4.45
2022-09-07T16:31:08.793Z,6.07
2022-09-07T16:33:37.269Z,3.95
2022-09-07T16:36:06.221Z,7.80
2022-09-07T16:38:44.062Z,8.60
2022-09-07T16:41:13.905Z,10.88
2022-09-07T16:43:41.585Z,6.50
2022-09-07T16:46:12.660Z,4.47
2022-09-07T16:48:40.866Z,5.93
2022-09-07T16:51:09.587Z,7.18
2022-09-07T16:53:38.196Z,18.38
2022-09-07T16:56:08.052Z,7.93
2022-09-07T16:58:37.774Z,9.90
2022-09-07T17:01:06.693Z,8.40
2022-09-07T17:03:36.014Z,9.65
2022-09-07T17:06:07.225Z,13.20
2022-09-07T17:08:37.151Z,9.13
2022-09-07T17:11:06.932Z,21.00
2022-09-07T17:13:35.233Z,6.45
2022-09-07T17:16:04.050Z,11.75
2022-09-07T17:21:20.895Z,9.35
2022-09-07T17:23:54.775Z,10.68
2022-09-07T17:26:26.677Z,17.95
2022-09-07T17:28:55.141Z,13.57
2022-09-07T17:34:12.587Z,15.65
2022-09-07T17:36:43.577Z,21.98
2022-09-07T17:39:16.299Z,21.23
2022-09-07T17:41:44.420Z,20.08
2022-09-07T17:44:12.082Z,16.42
2022-09-07T17:46:39.717Z,16.70
2022-09-07T17:49:12.484Z,26.23
2022-09-07T17:51:41.630Z,14.02
2022-09-07T17:54:11.900Z,21.92
2022-09-07T17:56:40.291Z,23.60
2022-09-07T18:01:56.509Z,12.88
2022-09-07T18:04:24.323Z,13.43
2022-09-07T18:06:54.372Z,15.48
2022-09-07T18:09:26.061Z,14.60
2022-09-07T18:11:53.741Z,13.88
2022-09-07T18:14:21.569Z,12.88
2022-09-07T18:16:50.225Z,18.27
2022-09-07T18:19:18.652Z,23.75
2022-09-07T18:21:47.923Z,16.77
2022-09-07T18:24:19.801Z,21.45
2022-09-07T18:26:52.321Z,13.10
2022-09-07T18:29:36.823Z,18.63
2022-09-07T18:32:08.647Z,12.52
2022-09-07T18:34:38.611Z,29.00
2022-09-07T18:37:07.487Z,28.98
2022-09-07T18:39:37.452Z,36.40
2022-09-07T18:42:19.059Z,28.20
2022-09-07T18:47:35.043Z,35.53
2022-09-07T18:50:02.991Z,35.92
2022-09-07T18:55:21.874Z,35.22
2022-09-07T18:58:01.086Z,56.63
2022-09-07T19:00:32.269Z,70.47
2022-09-07T19:02:59.987Z,38.80
2022-09-07T19:08:15.750Z,29.80
2022-09-07T19:10:45.193Z,41.05
2022-09-07T19:13:13.887Z,35.10
2022-09-07T19:15:42.081Z,28.58
2022-09-07T19:18:10.497Z,41.75
2022-09-07T19:20:38.609Z,31.50
2022-09-07T19:23:11.791Z,35.33
2022-09-07T19:25:44.164Z,47.40
2022-09-07T19:28:13.005Z,39.20
2022-09-07T19:30:49.863Z,41.40
2022-09-07T19:33:17.891Z,36.40
2022-09-07T19:35:45.773Z,29.58
2022-09-07T19:40:58.207Z,29.58
2022-09-07T19:43:53.281Z,28.77
2022-09-07T19:49:01.924Z,40.53
2022-09-07T19:51:42.466Z,41.63
2022-09-07T19:54:10.766Z,40.97
2022-09-07T19:56:40.538Z,38.38
2022-09-07T19:59:10.118Z,46.70
2022-09-07T20:01:40.102Z,36.28
2022-09-07T20:04:09.433Z,33.10
2022-09-07T20:06:39.032Z,37.50
2022-09-07T20:09:09.212Z,37.90
2022-09-07T20:11:37.390Z,24.65
2022-09-07T20:14:08.191Z,40.42
2022-09-07T20:16:39.674Z,27.55
2022-09-07T20:19:08.189Z,31.17
2022-09-07T20:21:46.577Z,29.83
2022-09-07T20:24:22.299Z,30.60
2022-09-07T20:26:53.149Z,25.05
2022-09-07T20:29:29.692Z,16.65
2022-09-07T20:31:57.919Z,18.83
2022-09-07T20:34:25.762Z,21.55
2022-09-07T20:36:53.799Z,21.63
2022-09-07T20:39:24.381Z,22.10
2022-09-07T20:41:52.417Z,23.10
2022-09-07T20:44:20.345Z,34.67
2022-09-07T20:46:56.114Z,27.70
2022-09-07T20:49:23.868Z,25.42
2022-09-07T20:51:51.602Z,29.50
2022-09-07T20:54:19.405Z,29.25
2022-09-07T20:56:47.166Z,15.85
2022-09-07T20:59:17.357Z,23.02
2022-09-07T21:01:49.134Z,23.00
2022-09-07T21:04:19.796Z,20.30
2022-09-07T21:06:58.970Z,18.58
2022-09-07T21:09:26.848Z,21.83
2022-09-07T21:11:57.193Z,17.30
2022-09-07T21:14:25.303Z,17.85
2022-09-07T21:16:52.947Z,21.80
2022-09-07T21:19:22.311Z,24.00
2022-09-07T21:21:50.001Z,22.65
2022-09-07T21:24:19.039Z,22.23
2022-09-07T21:26:47.428Z,18.50
2022-09-07T21:29:18.363Z,24.85
2022-09-07T21:31:46.390Z,13.75
2022-09-07T21:34:14.435Z,22.27
2022-09-07T21:36:43.916Z,17.55
2022-09-07T21:39:14.528Z,19.70
2022-09-07T21:41:42.787Z,19.33
2022-09-07T21:44:12.753Z,16.92
2022-09-07T21:46:40.534Z,20.90
2022-09-07T21:49:08.268Z,19.35
2022-09-07T21:51:36.158Z,22.52
2022-09-07T21:54:05.323Z,17.48
2022-09-07T21:56:33.077Z,19.73
2022-09-07T21:59:01.937Z,19.40
2022-09-07T22:01:32.490Z,22.13
2022-09-07T22:04:01.237Z,17.83
2022-09-07T22:06:29.290Z,24.88
2022-09-07T22:08:57.384Z,24.35
2022-09-07T22:11:27.206Z,19.90
2022-09-07T22:13:55.616Z,18.35
2022-09-07T22:16:23.521Z,21.25
2022-09-07T22:18:52.636Z,24.00
2022-09-07T22:21:21.384Z,33.05
2022-09-07T22:23:49.921Z,19.25
2022-09-07T22:26:20.432Z,20.48
2022-09-07T22:28:49.975Z,24.38
2022-09-07T22:31:18.837Z,24.67
2022-09-07T22:33:47.579Z,26.58
2022-09-07T22:36:16.350Z,33.22
2022-09-07T22:38:45.116Z,25.38
2022-09-07T22:41:13.828Z,24.35
2022-09-07T22:43:42.773Z,21.50
2022-09-07T22:46:12.540Z,26.20
2022-09-07T22:48:40.288Z,25.83
2022-09-07T22:51:08.922Z,24.17
2022-09-07T22:53:37.973Z,25.25
2022-09-07T22:56:09.423Z,19.02
2022-09-07T22:58:37.402Z,29.90
2022-09-07T23:01:05.887Z,29.20
2022-09-07T23:03:35.967Z,26.25
2022-09-07T23:06:04.172Z,28.20
2022-09-07T23:08:32.181Z,26.13
2022-09-07T23:11:05.354Z,28.55
2022-09-07T23:13:33.324Z,30.05
2022-09-07T23:16:04.009Z,30.00
2022-09-07T23:18:31.697Z,31.27
2022-09-07T23:21:00.996Z,45.80
2022-09-07T23:23:29.422Z,33.13
2022-09-07T23:25:59.516Z,33.45
2022-09-07T23:28:27.256Z,29.95
2022-09-07T23:30:57.530Z,26.55
2022-09-07T23:33:26.316Z,27.15
2022-09-07T23:35:57.932Z,32.80
2022-09-07T23:38:27.757Z,38.65
2022-09-07T23:40:56.009Z,32.65
2022-09-07T23:43:24.059Z,32.78
2022-09-07T23:45:52.036Z,26.08
2022-09-07T23:48:20.088Z,29.10
2022-09-07T23:50:47.943Z,31.17
2022-09-07T23:53:16.171Z,26.75
2022-09-07T23:55:46.639Z,37.78
2022-09-07T23:58:14.360Z,34.42
